sensor_id;sensor_type;location;lat;lon;timestamp;pressure;altitude;pressure_sealevel;temperature;humidity
61963;BME280;47927;42.646;23.096;2023-01-26T05:58:10;92087.31;;;-1.84;68.03
61963;BME280;47927;42.646;23.096;2023-01-26T06:00:37;92104.72;;;-1.72;68.18
61963;BME280;47927;42.646;23.096;2023-01-26T06:03:08;92098.19;;;-1.14;66.11
61963;BME280;47927;42.646;23.096;2023-01-26T06:09:21;92117.06;;;-1.38;66.54
61963;BME280;47927;42.646;23.096;2023-01-26T06:12:03;92108.91;;;-1.26;66.41
61963;BME280;47927;42.646;23.096;2023-01-26T06:14:45;92098.56;;;-1.57;66.40
61963;BME280;47927;42.646;23.096;2023-01-26T06:17:12;92107.81;;;-1.61;66.75
61963;BME280;47927;42.646;23.096;2023-01-26T06:19:39;92098.13;;;-1.23;66.23
61963;BME280;47927;42.646;23.096;2023-01-26T06:22:09;92098.59;;;-0.62;63.98
61963;BME280;47927;42.646;23.096;2023-01-26T06:24:37;92107.13;;;-0.89;64.14
61963;BME280;47927;42.646;23.096;2023-01-26T06:27:06;92089.75;;;-0.78;63.64
61963;BME280;47927;42.646;23.096;2023-01-26T06:29:36;92091.56;;;-0.79;64.24
61963;BME280;47927;42.646;23.096;2023-01-26T14:25:33;91643.63;;;4.72;52.50
61963;BME280;47927;42.646;23.096;2023-01-26T14:34:56;91645.06;;;4.38;52.84
61963;BME280;47927;42.646;23.096;2023-01-26T14:37:24;91641.13;;;3.69;53.77
61963;BME280;47927;42.646;23.096;2023-01-26T14:40:29;91635.03;;;3.89;54.20
61963;BME280;47927;42.646;23.096;2023-01-26T14:42:55;91640.00;;;4.26;53.46
61963;BME280;47927;42.646;23.096;2023-01-26T14:45:31;91645.28;;;4.49;52.57
61963;BME280;47927;42.646;23.096;2023-01-26T14:48:05;91637.78;;;4.75;52.55
61963;BME280;47927;42.646;23.096;2023-01-26T14:50:33;91630.75;;;4.56;53.32
61963;BME280;47927;42.646;23.096;2023-01-26T14:53:00;91621.81;;;4.70;53.13
61963;BME280;47927;42.646;23.096;2023-01-26T14:55:33;91629.88;;;4.84;52.58
61963;BME280;47927;42.646;23.096;2023-01-26T14:58:13;91631.66;;;4.99;52.19
61963;BME280;47927;42.646;23.096;2023-01-26T15:00:40;91622.19;;;5.03;52.13
61963;BME280;47927;42.646;23.096;2023-01-26T15:03:21;91602.13;;;4.97;52.11
61963;BME280;47927;42.646;23.096;2023-01-26T15:05:48;91612.84;;;4.99;52.21
61963;BME280;47927;42.646;23.096;2023-01-26T15:08:21;91608.72;;;4.94;52.12
61963;BME280;47927;42.646;23.096;2023-01-26T15:10:58;91600.38;;;5.01;52.30
61963;BME280;47927;42.646;23.096;2023-01-26T15:13:46;91595.44;;;5.12;52.16
61963;BME280;47927;42.646;23.096;2023-01-26T15:16:23;91581.06;;;5.14;52.08
61963;BME280;47927;42.646;23.096;2023-01-26T15:19:00;91574.34;;;4.39;52.97
61963;BME280;47927;42.646;23.096;2023-01-26T15:21:34;91567.28;;;4.20;53.64
61963;BME280;47927;42.646;23.096;2023-01-26T15:24:05;91568.16;;;4.60;52.75
61963;BME280;47927;42.646;23.096;2023-01-26T15:26:37;91566.78;;;4.46;52.48
61963;BME280;47927;42.646;23.096;2023-01-26T15:29:14;91555.81;;;4.18;52.92
61963;BME280;47927;42.646;23.096;2023-01-26T15:31:42;91552.91;;;4.03;54.17
61963;BME280;47927;42.646;23.096;2023-01-26T15:34:33;91555.03;;;4.33;53.36
61963;BME280;47927;42.646;23.096;2023-01-26T15:37:47;91565.59;;;4.28;53.38
61963;BME280;47927;42.646;23.096;2023-01-26T15:39:47;91553.91;;;4.15;53.43
61963;BME280;47927;42.646;23.096;2023-01-26T15:42:14;91544.31;;;3.52;55.21
61963;BME280;47927;42.646;23.096;2023-01-26T15:44:58;91529.22;;;3.66;54.96
61963;BME280;47927;42.646;23.096;2023-01-26T15:47:24;91545.66;;;4.25;53.43
61963;BME280;47927;42.646;23.096;2023-01-26T15:49:50;91550.31;;;4.19;53.36
61963;BME280;47927;42.646;23.096;2023-01-26T15:52:18;91541.25;;;4.25;53.79
61963;BME280;47927;42.646;23.096;2023-01-26T15:54:45;91541.44;;;3.69;55.08
61963;BME280;47927;42.646;23.096;2023-01-26T15:57:11;91528.63;;;3.29;55.89
61963;BME280;47927;42.646;23.096;2023-01-26T15:59:37;91514.38;;;3.03;56.07
61963;BME280;47927;42.646;23.096;2023-01-26T16:02:12;91528.50;;;3.09;56.55
61963;BME280;47927;42.646;23.096;2023-01-26T16:04:38;91529.91;;;2.66;58.38
61963;BME280;47927;42.646;23.096;2023-01-26T16:07:11;91508.31;;;2.43;59.16
61963;BME280;47927;42.646;23.096;2023-01-26T16:09:37;91530.72;;;2.30;59.38
61963;BME280;47927;42.646;23.096;2023-01-26T16:12:03;91511.31;;;1.34;61.37
61963;BME280;47927;42.646;23.096;2023-01-26T16:14:48;91523.16;;;1.39;61.98
61963;BME280;47927;42.646;23.096;2023-01-26T16:17:15;91506.41;;;1.78;61.55
61963;BME280;47927;42.646;23.096;2023-01-26T16:19:41;91500.88;;;2.01;61.44
61963;BME280;47927;42.646;23.096;2023-01-26T16:22:10;91480.28;;;1.40;62.44
61963;BME280;47927;42.646;23.096;2023-01-26T16:24:37;91503.31;;;1.15;63.20
61963;BME280;47927;42.646;23.096;2023-01-26T16:27:03;91516.00;;;1.45;63.35
61963;BME280;47927;42.646;23.096;2023-01-26T16:29:29;91495.94;;;1.71;61.61
61963;BME280;47927;42.646;23.096;2023-01-26T16:31:56;91518.38;;;1.38;62.38
61963;BME280;47927;42.646;23.096;2023-01-26T16:34:22;91517.03;;;1.77;62.09
61963;BME280;47927;42.646;23.096;2023-01-26T16:36:48;91525.47;;;1.77;62.00
61963;BME280;47927;42.646;23.096;2023-01-26T16:39:13;91524.66;;;0.74;64.60
61963;BME280;47927;42.646;23.096;2023-01-26T16:41:39;91529.00;;;1.27;64.14
61963;BME280;47927;42.646;23.096;2023-01-26T16:44:10;91530.50;;;0.95;64.96
61963;BME280;47927;42.646;23.096;2023-01-26T17:09:19;91502.38;;;1.77;63.08
61963;BME280;47927;42.646;23.096;2023-01-26T17:11:45;91494.22;;;1.75;63.11
61963;BME280;47927;42.646;23.096;2023-01-26T17:14:11;91494.63;;;1.41;64.23
61963;BME280;47927;42.646;23.096;2023-01-26T17:40:17;91482.84;;;0.61;68.22
61963;BME280;47927;42.646;23.096;2023-01-26T17:42:42;91478.63;;;0.56;68.05
61963;BME280;47927;42.646;23.096;2023-01-26T17:45:08;91460.34;;;0.25;68.55
61963;BME280;47927;42.646;23.096;2023-01-26T17:47:34;91476.22;;;0.60;67.94
61963;BME280;47927;42.646;23.096;2023-01-26T17:50:00;91463.72;;;0.91;67.63
61963;BME280;47927;42.646;23.096;2023-01-26T17:52:26;91460.66;;;0.98;66.54
61963;BME280;47927;42.646;23.096;2023-01-26T17:54:52;91458.59;;;1.04;65.85
61963;BME280;47927;42.646;23.096;2023-01-26T17:57:18;91464.84;;;0.49;67.75
61963;BME280;47927;42.646;23.096;2023-01-26T17:59:44;91459.44;;;0.41;67.83
61963;BME280;47927;42.646;23.096;2023-01-26T18:02:12;91455.75;;;-0.12;69.34
61963;BME280;47927;42.646;23.096;2023-01-26T18:04:38;91456.19;;;0.32;68.61
61963;BME280;47927;42.646;23.096;2023-01-26T18:07:03;91442.59;;;0.74;67.58
61963;BME280;47927;42.646;23.096;2023-01-26T18:09:29;91438.69;;;0.88;66.44
61963;BME280;47927;42.646;23.096;2023-01-26T18:11:54;91424.53;;;0.70;66.31
61963;BME280;47927;42.646;23.096;2023-01-26T18:14:20;91442.31;;;0.75;67.01
61963;BME280;47927;42.646;23.096;2023-01-26T18:16:47;91435.69;;;0.53;67.01
61963;BME280;47927;42.646;23.096;2023-01-26T18:19:13;91423.47;;;1.04;66.55
61963;BME280;47927;42.646;23.096;2023-01-26T18:21:38;91409.34;;;0.65;66.87
61963;BME280;47927;42.646;23.096;2023-01-26T18:24:04;91421.84;;;1.00;66.28
61963;BME280;47927;42.646;23.096;2023-01-26T18:26:33;91421.84;;;1.00;66.34
61963;BME280;47927;42.646;23.096;2023-01-26T18:28:59;91411.28;;;1.13;65.59
61963;BME280;47927;42.646;23.096;2023-01-26T18:31:27;91418.84;;;0.98;65.72
61963;BME280;47927;42.646;23.096;2023-01-26T18:33:55;91418.91;;;1.59;64.48
61963;BME280;47927;42.646;23.096;2023-01-26T18:36:22;91405.84;;;1.27;64.64
61963;BME280;47927;42.646;23.096;2023-01-26T18:38:59;91421.91;;;1.61;64.38
61963;BME280;47927;42.646;23.096;2023-01-26T18:41:27;91415.72;;;1.50;64.09
61963;BME280;47927;42.646;23.096;2023-01-26T18:43:54;91379.22;;;1.20;64.41
61963;BME280;47927;42.646;23.096;2023-01-26T18:46:23;91410.78;;;1.81;63.54
61963;BME280;47927;42.646;23.096;2023-01-26T18:48:51;91401.16;;;1.54;63.52
61963;BME280;47927;42.646;23.096;2023-01-26T18:51:18;91403.28;;;1.76;63.21
61963;BME280;47927;42.646;23.096;2023-01-26T18:53:46;91395.06;;;1.71;63.76
61963;BME280;47927;42.646;23.096;2023-01-26T18:56:15;91389.50;;;1.56;64.23
61963;BME280;47927;42.646;23.096;2023-01-26T18:58:41;91389.41;;;1.53;64.58
61963;BME280;47927;42.646;23.096;2023-01-26T19:01:12;91382.34;;;1.50;64.66
61963;BME280;47927;42.646;23.096;2023-01-26T19:03:40;91384.56;;;1.27;64.80
61963;BME280;47927;42.646;23.096;2023-01-26T19:06:08;91383.41;;;1.36;65.12
61963;BME280;47927;42.646;23.096;2023-01-26T19:08:34;91378.44;;;1.07;66.29
61963;BME280;47927;42.646;23.096;2023-01-26T19:11:06;91373.47;;;1.10;65.46
61963;BME280;47927;42.646;23.096;2023-01-26T19:13:32;91369.47;;;1.01;65.95
61963;BME280;47927;42.646;23.096;2023-01-26T19:15:58;91366.91;;;1.62;64.63
61963;BME280;47927;42.646;23.096;2023-01-26T19:18:24;91370.25;;;1.38;64.55
61963;BME280;47927;42.646;23.096;2023-01-26T19:20:56;91369.53;;;0.67;66.59
61963;BME280;47927;42.646;23.096;2023-01-26T19:23:22;91345.00;;;1.28;65.44
61963;BME280;47927;42.646;23.096;2023-01-26T19:25:48;91356.34;;;1.64;64.36
61963;BME280;47927;42.646;23.096;2023-01-26T19:28:15;91352.34;;;1.91;63.41
61963;BME280;47927;42.646;23.096;2023-01-26T19:30:42;91336.03;;;1.34;64.12
61963;BME280;47927;42.646;23.096;2023-01-26T19:33:08;91362.63;;;1.66;64.24
61963;BME280;47927;42.646;23.096;2023-01-26T19:35:50;91367.94;;;1.98;62.52
61963;BME280;47927;42.646;23.096;2023-01-26T19:38:16;91361.63;;;1.95;62.83
61963;BME280;47927;42.646;23.096;2023-01-26T19:40:47;91367.75;;;1.78;63.30
61963;BME280;47927;42.646;23.096;2023-01-26T19:43:14;91360.44;;;1.93;62.59
61963;BME280;47927;42.646;23.096;2023-01-26T19:45:40;91359.66;;;1.52;63.87
61963;BME280;47927;42.646;23.096;2023-01-26T19:48:11;91357.72;;;1.00;65.98
61963;BME280;47927;42.646;23.096;2023-01-26T19:50:36;91362.09;;;1.85;64.00
61963;BME280;47927;42.646;23.096;2023-01-26T19:53:02;91344.34;;;1.68;63.83
61963;BME280;47927;42.646;23.096;2023-01-26T19:55:27;91360.03;;;0.80;65.73
61963;BME280;47927;42.646;23.096;2023-01-26T19:57:54;91347.81;;;0.98;66.39
61963;BME280;47927;42.646;23.096;2023-01-26T20:00:19;91349.06;;;1.41;65.04
61963;BME280;47927;42.646;23.096;2023-01-26T20:02:46;91357.72;;;1.61;63.83
61963;BME280;47927;42.646;23.096;2023-01-26T20:05:11;91363.06;;;0.95;65.04
61963;BME280;47927;42.646;23.096;2023-01-26T20:07:37;91371.38;;;0.13;67.93
61963;BME280;47927;42.646;23.096;2023-01-26T20:10:04;91374.00;;;0.25;68.27
61963;BME280;47927;42.646;23.096;2023-01-26T20:38:58;91292.22;;;2.08;61.84
61963;BME280;47927;42.646;23.096;2023-01-26T20:41:27;91282.88;;;2.15;60.53
61963;BME280;47927;42.646;23.096;2023-01-26T20:43:54;91253.16;;;2.02;60.48
61963;BME280;47927;42.646;23.096;2023-01-26T20:46:20;91273.78;;;2.34;60.42
61963;BME280;47927;42.646;23.096;2023-01-26T20:48:46;91300.22;;;2.62;59.38
61963;BME280;47927;42.646;23.096;2023-01-26T20:51:14;91302.47;;;2.80;58.17
61963;BME280;47927;42.646;23.096;2023-01-26T20:53:40;91267.84;;;2.61;58.12
61963;BME280;47927;42.646;23.096;2023-01-26T20:56:07;91292.56;;;2.82;58.00
61963;BME280;47927;42.646;23.096;2023-01-26T20:58:37;91300.28;;;2.82;57.79
61963;BME280;47927;42.646;23.096;2023-01-26T21:01:08;91297.88;;;3.05;57.23
61963;BME280;47927;42.646;23.096;2023-01-26T21:03:35;91298.16;;;3.15;56.85
61963;BME280;47927;42.646;23.096;2023-01-26T21:06:01;91292.50;;;2.94;57.09
61963;BME280;47927;42.646;23.096;2023-01-26T21:08:27;91293.25;;;3.10;56.96
61963;BME280;47927;42.646;23.096;2023-01-26T21:10:53;91284.44;;;3.11;56.55
61963;BME280;47927;42.646;23.096;2023-01-26T21:13:19;91279.59;;;3.26;56.44
61963;BME280;47927;42.646;23.096;2023-01-26T21:15:45;91281.44;;;3.09;56.04
61963;BME280;47927;42.646;23.096;2023-01-26T21:18:12;91274.97;;;3.15;56.10
61963;BME280;47927;42.646;23.096;2023-01-26T21:20:38;91280.34;;;3.26;56.05
61963;BME280;47927;42.646;23.096;2023-01-26T21:23:03;91283.41;;;3.32;55.83
61963;BME280;47927;42.646;23.096;2023-01-26T21:25:29;91270.91;;;2.07;59.53
61963;BME280;47927;42.646;23.096;2023-01-26T21:27:54;91279.09;;;1.97;59.33
61963;BME280;47927;42.646;23.096;2023-01-26T21:30:20;91278.69;;;2.39;58.98
61963;BME280;47927;42.646;23.096;2023-01-26T21:32:46;91274.97;;;2.52;58.42
61963;BME280;47927;42.646;23.096;2023-01-26T21:35:11;91269.75;;;2.64;57.85
61963;BME280;47927;42.646;23.096;2023-01-26T21:37:40;91244.03;;;2.64;57.03
61963;BME280;47927;42.646;23.096;2023-01-26T21:40:06;91276.72;;;2.95;57.33
61963;BME280;47927;42.646;23.096;2023-01-26T21:42:33;91278.03;;;3.05;56.59
61963;BME280;47927;42.646;23.096;2023-01-26T21:44:59;91283.59;;;3.23;55.98
61963;BME280;47927;42.646;23.096;2023-01-26T21:47:43;91285.84;;;3.25;56.38
61963;BME280;47927;42.646;23.096;2023-01-26T21:50:09;91273.16;;;3.00;56.73
61963;BME280;47927;42.646;23.096;2023-01-26T21:52:35;91269.72;;;3.12;56.57
61963;BME280;47927;42.646;23.096;2023-01-26T21:55:19;91271.22;;;3.29;56.12
61963;BME280;47927;42.646;23.096;2023-01-26T21:57:44;91279.06;;;3.36;55.51
61963;BME280;47927;42.646;23.096;2023-01-26T22:00:28;91280.66;;;3.40;55.92
61963;BME280;47927;42.646;23.096;2023-01-26T22:02:53;91278.50;;;3.42;55.65
61963;BME280;47927;42.646;23.096;2023-01-26T22:05:20;91280.31;;;3.42;55.74
61963;BME280;47927;42.646;23.096;2023-01-26T22:07:45;91278.63;;;3.50;55.50
61963;BME280;47927;42.646;23.096;2023-01-26T22:10:11;91267.00;;;3.56;55.30
61963;BME280;47927;42.646;23.096;2023-01-26T22:12:36;91270.59;;;3.51;55.24
61963;BME280;47927;42.646;23.096;2023-01-26T22:15:02;91272.50;;;3.38;55.44
61963;BME280;47927;42.646;23.096;2023-01-26T22:17:29;91262.03;;;3.47;55.75
61963;BME280;47927;42.646;23.096;2023-01-26T22:19:55;91258.75;;;3.31;55.56
61963;BME280;47927;42.646;23.096;2023-01-26T22:22:20;91253.44;;;3.24;55.92
61963;BME280;47927;42.646;23.096;2023-01-26T22:24:46;91245.84;;;2.95;56.02
61963;BME280;47927;42.646;23.096;2023-01-26T22:27:11;91232.66;;;2.97;56.25
61963;BME280;47927;42.646;23.096;2023-01-26T22:29:37;91228.53;;;2.92;56.13
61963;BME280;47927;42.646;23.096;2023-01-26T22:32:02;91227.34;;;2.90;56.46
61963;BME280;47927;42.646;23.096;2023-01-26T22:34:28;91227.19;;;2.99;55.91
61963;BME280;47927;42.646;23.096;2023-01-26T22:36:54;91224.50;;;3.11;55.72
61963;BME280;47927;42.646;23.096;2023-01-26T22:39:19;91215.13;;;3.03;55.86
61963;BME280;47927;42.646;23.096;2023-01-26T22:41:45;91222.25;;;3.09;55.48
61963;BME280;47927;42.646;23.096;2023-01-26T22:44:10;91226.47;;;3.17;55.87
61963;BME280;47927;42.646;23.096;2023-01-26T22:46:36;91226.75;;;3.12;55.62
61963;BME280;47927;42.646;23.096;2023-01-26T22:49:03;91216.91;;;3.18;55.40
61963;BME280;47927;42.646;23.096;2023-01-26T22:51:32;91222.03;;;3.34;55.29
61963;BME280;47927;42.646;23.096;2023-01-26T22:54:01;91213.47;;;3.46;54.68
61963;BME280;47927;42.646;23.096;2023-01-26T22:56:27;91220.44;;;3.45;54.87
61963;BME280;47927;42.646;23.096;2023-01-26T22:58:57;91213.34;;;3.42;55.08
61963;BME280;47927;42.646;23.096;2023-01-26T23:01:23;91200.97;;;3.48;54.63
61963;BME280;47927;42.646;23.096;2023-01-26T23:03:50;91178.88;;;3.27;55.00
61963;BME280;47927;42.646;23.096;2023-01-26T23:06:17;91205.72;;;3.46;54.76
61963;BME280;47927;42.646;23.096;2023-01-26T23:08:43;91197.41;;;3.52;54.50
61963;BME280;47927;42.646;23.096;2023-01-26T23:13:41;91184.78;;;3.28;54.60
61963;BME280;47927;42.646;23.096;2023-01-26T23:16:07;91189.19;;;3.27;54.53
61963;BME280;47927;42.646;23.096;2023-01-26T23:18:32;91186.53;;;3.24;54.58
61963;BME280;47927;42.646;23.096;2023-01-26T23:20:58;91185.66;;;3.16;54.95
61963;BME280;47927;42.646;23.096;2023-01-26T23:23:25;91198.56;;;3.19;54.95
61963;BME280;47927;42.646;23.096;2023-01-26T23:25:51;91202.69;;;3.24;54.97
61963;BME280;47927;42.646;23.096;2023-01-26T23:28:18;91160.97;;;3.15;54.73
61963;BME280;47927;42.646;23.096;2023-01-26T23:30:45;91191.44;;;3.48;54.65
61963;BME280;47927;42.646;23.096;2023-01-26T23:33:11;91188.19;;;3.51;54.46
61963;BME280;47927;42.646;23.096;2023-01-26T23:35:37;91181.59;;;3.54;54.60
61963;BME280;47927;42.646;23.096;2023-01-26T23:38:03;91191.97;;;3.57;54.57
61963;BME280;47927;42.646;23.096;2023-01-26T23:40:29;91182.00;;;3.36;54.58
61963;BME280;47927;42.646;23.096;2023-01-26T23:42:54;91179.50;;;3.40;54.99
61963;BME280;47927;42.646;23.096;2023-01-26T23:45:20;91171.91;;;3.28;55.31
61963;BME280;47927;42.646;23.096;2023-01-26T23:47:46;91168.78;;;3.38;54.86
61963;BME280;47927;42.646;23.096;2023-01-26T23:50:11;91164.94;;;3.28;54.76
61963;BME280;47927;42.646;23.096;2023-01-26T23:52:37;91170.56;;;3.34;55.12
61963;BME280;47927;42.646;23.096;2023-01-26T23:55:02;91179.34;;;3.33;54.63
61963;BME280;47927;42.646;23.096;2023-01-26T23:57:28;91176.78;;;3.33;54.25
61963;BME280;47927;42.646;23.096;2023-01-26T23:59:54;91174.13;;;3.29;54.27
